Time,TemperatureF,DewpointF,PressureIn,WindDirection,WindDirectionDegrees,WindSpeedMPH,WindSpeedGustMPH,Humidity,HourlyPrecipIn,Conditions,Clouds,dailyrainin,SoftwareType,DateUTC
2013-06-23 00:14:00,78.3,69.7,29.87,South,180,13.5,-999.0,75,-99.99,,,0.00,Acu-Link.com,2013-06-23 05:14:00,
2013-06-23 00:29:00,78.1,69.5,29.87,South,180,8.3,-999.0,75,-99.99,,,0.00,Acu-Link.com,2013-06-23 05:29:00,
2013-06-23 00:44:00,78.1,69.9,29.86,South,180,8.3,-999.0,76,-99.99,,,0.00,Acu-Link.com,2013-06-23 05:44:00,
2013-06-23 00:59:00,77.7,69.5,29.85,ESE,112,7.3,-999.0,76,-99.99,,,0.00,Acu-Link.com,2013-06-23 05:59:00,
2013-06-23 01:14:00,77.7,69.5,29.84,South,180,11.4,-999.0,76,-99.99,,,0.00,Acu-Link.com,2013-06-23 06:14:00,
2013-06-23 01:30:00,77.9,69.7,29.83,South,180,8.3,-999.0,76,-99.99,,,0.00,Acu-Link.com,2013-06-23 06:30:00,
2013-06-23 01:45:00,78.1,69.5,29.84,SE,135,11.4,-999.0,75,-99.99,,,0.00,Acu-Link.com,2013-06-23 06:45:00,
2013-06-23 02:00:00,78.1,69.5,29.84,SSW,202,12.5,-999.0,75,-99.99,,,0.00,Acu-Link.com,2013-06-23 07:00:00,
2013-06-23 02:15:00,77.9,69.3,29.84,SSW,202,10.4,-999.0,75,-99.99,,,0.00,Acu-Link.com,2013-06-23 07:15:00,
2013-06-23 02:30:00,77.9,68.9,29.85,SSE,157,9.4,-999.0,74,-99.99,,,0.00,Acu-Link.com,2013-06-23 07:30:00,
2013-06-23 02:46:00,77.7,68.7,29.84,South,180,13.0,-999.0,74,-99.99,,,0.00,Acu-Link.com,2013-06-23 07:46:00,
2013-06-23 03:01:00,77.5,68.5,29.84,SSE,157,8.9,-999.0,74,-99.99,,,0.00,Acu-Link.com,2013-06-23 08:01:00,
2013-06-23 03:16:00,77.5,68.5,29.83,SSE,157,14.5,-999.0,74,-99.99,,,0.00,Acu-Link.com,2013-06-23 08:16:00,
2013-06-23 03:32:00,77.2,68.3,29.83,SSW,202,7.3,-999.0,74,-99.99,,,0.00,Acu-Link.com,2013-06-23 08:32:00,
2013-06-23 03:47:00,77.2,68.3,29.83,SSE,157,7.8,-999.0,74,-99.99,,,0.00,Acu-Link.com,2013-06-23 08:47:00,
2013-06-23 04:02:00,77.0,68.1,29.83,SSW,202,10.4,-999.0,74,-99.99,,,0.00,Acu-Link.com,2013-06-23 09:02:00,
2013-06-23 04:17:00,76.8,67.9,29.84,SE,135,6.8,-999.0,74,-99.99,,,0.00,Acu-Link.com,2013-06-23 09:17:00,
2013-06-23 04:32:00,76.8,67.9,29.83,South,180,13.5,-999.0,74,-99.99,,,0.00,Acu-Link.com,2013-06-23 09:32:00,
2013-06-23 04:47:00,77.0,68.1,29.82,South,180,13.5,-999.0,74,-99.99,,,0.00,Acu-Link.com,2013-06-23 09:47:00,
2013-06-23 05:03:00,77.2,67.9,29.83,South,180,15.0,-999.0,73,-99.99,,,0.00,Acu-Link.com,2013-06-23 10:03:00,
2013-06-23 05:18:00,76.8,67.9,29.82,South,180,16.1,-999.0,74,-99.99,,,0.00,Acu-Link.com,2013-06-23 10:18:00,
2013-06-23 05:33:00,77.0,68.1,29.81,South,180,11.9,-999.0,74,-99.99,,,0.00,Acu-Link.com,2013-06-23 10:33:00,
2013-06-23 05:48:00,76.8,68.3,29.89,NE,45,2.2,-999.0,75,-99.99,,,0.00,Acu-Link.com,2013-06-23 10:48:00,
2013-06-23 06:03:00,75.4,68.0,29.90,WNW,292,8.3,-999.0,78,-99.99,,,0.00,Acu-Link.com,2013-06-23 11:03:00,
2013-06-23 06:19:00,70.2,66.8,29.91,North,0,9.9,-999.0,89,-99.99,,,0.01,Acu-Link.com,2013-06-23 11:19:00,
2013-06-23 06:34:00,67.6,66.4,29.93,North,0,15.5,-999.0,96,-99.99,,,0.39,Acu-Link.com,2013-06-23 11:34:00,
2013-06-23 06:49:00,66.2,65.6,29.98,West,270,10.4,-999.0,98,-99.99,,,0.76,Acu-Link.com,2013-06-23 11:49:00,
2013-06-23 07:05:00,65.5,64.9,29.96,WNW,292,11.9,-999.0,98,-99.99,,,1.04,Acu-Link.com,2013-06-23 12:05:00,
2013-06-23 07:20:00,64.9,64.3,29.97,NNW,337,13.5,-999.0,98,-99.99,,,1.06,Acu-Link.com,2013-06-23 12:20:00,
2013-06-23 07:35:00,64.8,64.2,29.97,ENE,67,3.7,-999.0,98,-99.99,,,1.08,Acu-Link.com,2013-06-23 12:35:00,
2013-06-23 07:50:00,64.6,64.0,29.98,ESE,112,4.7,-999.0,98,-99.99,,,1.11,Acu-Link.com,2013-06-23 12:50:00,
2013-06-23 08:06:00,64.4,63.8,29.91,NE,45,11.4,-999.0,98,-99.99,,,1.13,Acu-Link.com,2013-06-23 13:06:00,
2013-06-23 08:21:00,64.0,63.4,29.91,East,90,8.3,-999.0,98,-99.99,,,1.18,Acu-Link.com,2013-06-23 13:21:00,
2013-06-23 08:36:00,63.5,62.9,29.85,East,90,7.8,-999.0,98,-99.99,,,1.23,Acu-Link.com,2013-06-23 13:36:00,
2013-06-23 08:51:00,63.3,62.7,29.85,ESE,112,8.9,-999.0,98,-99.99,,,1.25,Acu-Link.com,2013-06-23 13:51:00,
2013-06-23 09:06:00,63.3,62.7,29.90,ESE,112,5.8,-999.0,98,-99.99,,,1.25,Acu-Link.com,2013-06-23 14:06:00,
2013-06-23 09:22:00,63.3,62.7,29.94,SSE,157,5.3,-999.0,98,-99.99,,,1.25,Acu-Link.com,2013-06-23 14:22:00,
2013-06-23 09:37:00,63.3,63.0,29.91,SSE,157,7.3,-999.0,99,-99.99,,,1.25,Acu-Link.com,2013-06-23 14:37:00,
2013-06-23 09:52:00,63.3,63.0,29.88,SE,135,8.3,-999.0,99,-99.99,,,1.25,Acu-Link.com,2013-06-23 14:52:00,
2013-06-23 10:29:00,64.2,63.9,29.89,SSW,202,3.7,-999.0,99,-99.99,,,1.25,Acu-Link.com,2013-06-23 15:29:00,
2013-06-23 10:44:00,64.9,64.6,29.89,South,180,2.2,-999.0,99,-99.99,,,1.25,Acu-Link.com,2013-06-23 15:44:00,
2013-06-23 10:59:00,65.8,65.2,29.90,WSW,247,2.7,-999.0,98,-99.99,,,1.25,Acu-Link.com,2013-06-23 15:59:00,
2013-06-23 11:14:00,66.7,65.8,29.91,WSW,247,2.2,-999.0,97,-99.99,,,1.25,Acu-Link.com,2013-06-23 16:14:00,
2013-06-23 11:30:00,66.9,66.0,29.90,WSW,247,2.7,-999.0,97,-99.99,,,1.25,Acu-Link.com,2013-06-23 16:30:00,
2013-06-23 11:45:00,67.3,66.1,29.90,SW,225,2.2,-999.0,96,-99.99,,,1.25,Acu-Link.com,2013-06-23 16:45:00,
2013-06-23 12:16:00,68.4,66.6,29.91,South,180,8.3,-999.0,94,-99.99,,,1.25,Acu-Link.com,2013-06-23 17:16:00,
2013-06-23 12:31:00,70.5,68.1,29.90,South,180,5.8,-999.0,92,-99.99,,,1.25,Acu-Link.com,2013-06-23 17:31:00,
2013-06-23 12:46:00,72.7,68.9,29.90,SSW,202,7.3,-999.0,88,-99.99,,,1.25,Acu-Link.com,2013-06-23 17:46:00,
2013-06-23 13:01:00,75.7,69.8,29.90,ESE,112,7.3,-999.0,82,-99.99,,,1.25,Acu-Link.com,2013-06-23 18:01:00,
2013-06-23 13:16:00,75.6,69.7,29.90,South,180,9.4,-999.0,82,-99.99,,,1.25,Acu-Link.com,2013-06-23 18:16:00,
2013-06-23 13:32:00,76.5,70.6,29.90,SSW,202,4.7,-999.0,82,-99.99,,,1.25,Acu-Link.com,2013-06-23 18:32:00,
2013-06-23 13:47:00,75.9,70.4,29.90,South,180,5.3,-999.0,83,-99.99,,,1.25,Acu-Link.com,2013-06-23 18:47:00,
2013-06-23 14:02:00,76.5,70.9,29.90,South,180,3.7,-999.0,83,-99.99,,,1.25,Acu-Link.com,2013-06-23 19:02:00,
2013-06-23 14:17:00,78.3,72.0,29.91,WSW,247,3.2,-999.0,81,-99.99,,,1.25,Acu-Link.com,2013-06-23 19:17:00,
2013-06-23 14:32:00,78.4,72.1,29.91,SE,135,4.7,-999.0,81,-99.99,,,1.25,Acu-Link.com,2013-06-23 19:32:00,
2013-06-23 14:48:00,79.0,71.9,29.91,South,180,7.8,-999.0,79,-99.99,,,1.25,Acu-Link.com,2013-06-23 19:48:00,
2013-06-23 15:03:00,81.5,72.8,29.90,SSW,202,2.7,-999.0,75,-99.99,,,1.25,Acu-Link.com,2013-06-23 20:03:00,
2013-06-23 15:18:00,81.1,72.8,29.90,SSW,202,1.7,-999.0,76,-99.99,,,1.25,Acu-Link.com,2013-06-23 20:18:00,
2013-06-23 15:33:00,82.4,74.1,29.90,NE,45,1.1,-999.0,76,-99.99,,,1.25,Acu-Link.com,2013-06-23 20:33:00,
2013-06-23 15:49:00,82.4,73.7,29.90,South,180,3.7,-999.0,75,-99.99,,,1.25,Acu-Link.com,2013-06-23 20:49:00,
2013-06-23 16:04:00,82.8,73.2,29.88,South,180,4.7,-999.0,73,-99.99,,,1.25,Acu-Link.com,2013-06-23 21:04:00,
2013-06-23 16:19:00,82.9,74.1,29.88,South,180,3.2,-999.0,75,-99.99,,,1.25,Acu-Link.com,2013-06-23 21:19:00,
2013-06-23 16:34:00,81.7,74.2,29.88,ESE,112,0.0,-999.0,78,-99.99,,,1.25,Acu-Link.com,2013-06-23 21:34:00,
2013-06-23 16:50:00,81.7,74.2,29.88,East,90,2.7,-999.0,78,-99.99,,,1.25,Acu-Link.com,2013-06-23 21:50:00,
2013-06-23 17:05:00,81.9,74.7,29.88,ESE,112,0.0,-999.0,79,-99.99,,,1.25,Acu-Link.com,2013-06-23 22:05:00,
2013-06-23 17:20:00,83.7,74.9,29.88,WSW,247,0.0,-999.0,75,-99.99,,,1.25,Acu-Link.com,2013-06-23 22:20:00,
2013-06-23 17:35:00,83.1,75.1,29.88,NNE,22,2.7,-999.0,77,-99.99,,,1.25,Acu-Link.com,2013-06-23 22:35:00,
2013-06-23 17:51:00,81.9,75.5,29.88,NE,45,2.7,-999.0,81,-99.99,,,1.25,Acu-Link.com,2013-06-23 22:51:00,
2013-06-23 18:06:00,81.3,75.3,29.88,ENE,67,1.1,-999.0,82,-99.99,,,1.25,Acu-Link.com,2013-06-23 23:06:00,
2013-06-23 18:21:00,80.6,75.7,29.89,NW,315,2.2,-999.0,85,-99.99,,,1.25,Acu-Link.com,2013-06-23 23:21:00,
2013-06-23 18:36:00,79.9,74.6,29.87,NNE,22,4.2,-999.0,84,-99.99,,,1.25,Acu-Link.com,2013-06-23 23:36:00,
2013-06-23 18:51:00,80.1,75.2,29.87,ENE,67,3.2,-999.0,85,-99.99,,,1.25,Acu-Link.com,2013-06-23 23:51:00,
2013-06-23 19:07:00,79.2,75.3,29.87,NNE,22,1.7,-999.0,88,-99.99,,,1.26,Acu-Link.com,2013-06-24 00:07:00,
2013-06-23 19:22:00,78.3,75.4,29.87,SE,135,1.7,-999.0,91,-99.99,,,1.26,Acu-Link.com,2013-06-24 00:22:00,
2013-06-23 19:37:00,78.3,75.8,29.87,NE,45,2.2,-999.0,92,-99.99,,,1.26,Acu-Link.com,2013-06-24 00:37:00,
2013-06-23 19:52:00,77.5,75.0,29.87,NNW,337,3.2,-999.0,92,-99.99,,,1.26,Acu-Link.com,2013-06-24 00:52:00,
2013-06-23 20:07:00,77.2,75.3,29.86,East,90,1.1,-999.0,94,-99.99,,,1.26,Acu-Link.com,2013-06-24 01:07:00,
2013-06-23 20:23:00,77.0,75.1,29.88,SE,135,0.0,-999.0,94,-99.99,,,1.27,Acu-Link.com,2013-06-24 01:23:00,
2013-06-23 20:38:00,76.3,74.4,29.88,South,180,2.7,-999.0,94,-99.99,,,1.27,Acu-Link.com,2013-06-24 01:38:00,
2013-06-23 20:53:00,75.6,73.7,29.88,ESE,112,2.2,-999.0,94,-99.99,,,1.27,Acu-Link.com,2013-06-24 01:53:00,
2013-06-23 21:08:00,75.2,73.7,29.89,East,90,1.7,-999.0,95,-99.99,,,1.27,Acu-Link.com,2013-06-24 02:08:00,
2013-06-23 21:23:00,75.0,73.8,29.89,East,90,2.2,-999.0,96,-99.99,,,1.27,Acu-Link.com,2013-06-24 02:23:00,
2013-06-23 21:39:00,75.0,73.8,29.90,East,90,2.2,-999.0,96,-99.99,,,1.27,Acu-Link.com,2013-06-24 02:39:00,
2013-06-23 21:54:00,74.8,73.6,29.91,NE,45,2.2,-999.0,96,-99.99,,,1.27,Acu-Link.com,2013-06-24 02:54:00,
2013-06-23 22:09:00,74.8,73.3,29.91,NE,45,3.2,-999.0,95,-99.99,,,1.27,Acu-Link.com,2013-06-24 03:09:00,
2013-06-23 22:24:00,74.7,73.2,29.92,NE,45,3.2,-999.0,95,-99.99,,,1.27,Acu-Link.com,2013-06-24 03:24:00,
2013-06-23 22:40:00,74.3,72.8,29.91,SE,135,3.2,-999.0,95,-99.99,,,1.27,Acu-Link.com,2013-06-24 03:40:00,
2013-06-23 22:55:00,73.8,72.3,29.92,South,180,2.7,-999.0,95,-99.99,,,1.27,Acu-Link.com,2013-06-24 03:55:00,
2013-06-23 23:10:00,73.6,72.4,29.92,South,180,1.1,-999.0,96,-99.99,,,1.27,Acu-Link.com,2013-06-24 04:10:00,
2013-06-23 23:25:00,73.2,72.0,29.91,ESE,112,3.2,-999.0,96,-99.99,,,1.27,Acu-Link.com,2013-06-24 04:25:00,
2013-06-23 23:41:00,73.2,72.3,29.91,ESE,112,1.7,-999.0,97,-99.99,,,1.27,Acu-Link.com,2013-06-24 04:41:00,
2013-06-23 23:56:00,73.2,72.3,29.91,SE,135,2.2,-999.0,97,-99.99,,,1.27,Acu-Link.com,2013-06-24 04:56:00,